sensor_id;sensor_type;location;lat;lon;timestamp;pressure;altitude;pressure_sealevel;temperature;humidity
75913;BME280;64592;52.168;21.040;2023-04-25T00:01:55;99084.13;;;14.05;65.74
75913;BME280;64592;52.168;21.040;2023-04-25T00:06:59;99083.25;;;13.88;66.67
75913;BME280;64592;52.168;21.040;2023-04-25T00:12:03;99084.78;;;13.82;67.13
75913;BME280;64592;52.168;21.040;2023-04-25T00:17:05;99084.47;;;13.77;67.88
75913;BME280;64592;52.168;21.040;2023-04-25T00:22:08;99089.53;;;13.80;67.62
75913;BME280;64592;52.168;21.040;2023-04-25T00:27:09;99094.59;;;13.75;68.22
75913;BME280;64592;52.168;21.040;2023-04-25T00:32:11;99085.78;;;13.73;68.34
75913;BME280;64592;52.168;21.040;2023-04-25T00:37:14;99081.75;;;13.77;68.28
75913;BME280;64592;52.168;21.040;2023-04-25T00:42:16;99091.38;;;13.80;68.22
75913;BME280;64592;52.168;21.040;2023-04-25T00:47:18;99092.91;;;13.74;68.13
75913;BME280;64592;52.168;21.040;2023-04-25T00:52:21;99097.66;;;13.80;68.23
75913;BME280;64592;52.168;21.040;2023-04-25T00:57:23;99099.34;;;13.81;68.15
75913;BME280;64592;52.168;21.040;2023-04-25T01:02:25;99102.72;;;13.75;68.51
75913;BME280;64592;52.168;21.040;2023-04-25T01:07:30;99102.00;;;13.57;69.62
75913;BME280;64592;52.168;21.040;2023-04-25T01:12:31;99091.50;;;13.46;70.55
75913;BME280;64592;52.168;21.040;2023-04-25T01:17:34;99091.66;;;13.44;71.23
75913;BME280;64592;52.168;21.040;2023-04-25T01:22:38;99089.63;;;13.46;71.61
75913;BME280;64592;52.168;21.040;2023-04-25T01:27:40;99090.50;;;13.47;71.84
75913;BME280;64592;52.168;21.040;2023-04-25T01:32:42;99088.09;;;13.44;72.50
75913;BME280;64592;52.168;21.040;2023-04-25T01:37:45;99093.47;;;13.36;73.64
75913;BME280;64592;52.168;21.040;2023-04-25T01:42:47;99095.53;;;13.34;73.74
75913;BME280;64592;52.168;21.040;2023-04-25T01:47:49;99099.88;;;13.27;75.07
75913;BME280;64592;52.168;21.040;2023-04-25T01:52:52;99093.66;;;13.26;75.22
75913;BME280;64592;52.168;21.040;2023-04-25T01:57:56;99089.41;;;13.24;76.29
75913;BME280;64592;52.168;21.040;2023-04-25T02:02:58;99085.66;;;13.16;77.08
75913;BME280;64592;52.168;21.040;2023-04-25T02:08:01;99080.94;;;13.18;77.49
75913;BME280;64592;52.168;21.040;2023-04-25T02:13:03;99079.69;;;13.13;77.59
75913;BME280;64592;52.168;21.040;2023-04-25T02:18:05;99072.56;;;13.04;78.42
75913;BME280;64592;52.168;21.040;2023-04-25T02:23:08;99073.38;;;13.04;78.56
75913;BME280;64592;52.168;21.040;2023-04-25T02:28:10;99074.41;;;13.03;78.23
75913;BME280;64592;52.168;21.040;2023-04-25T02:33:12;99078.09;;;12.94;78.78
75913;BME280;64592;52.168;21.040;2023-04-25T02:38:15;99074.69;;;12.92;78.83
75913;BME280;64592;52.168;21.040;2023-04-25T02:43:16;99073.44;;;12.78;79.55
75913;BME280;64592;52.168;21.040;2023-04-25T02:48:18;99072.09;;;12.74;79.42
75913;BME280;64592;52.168;21.040;2023-04-25T02:53:21;99067.50;;;12.75;79.14
75913;BME280;64592;52.168;21.040;2023-04-25T02:58:23;99070.53;;;12.72;79.16
75913;BME280;64592;52.168;21.040;2023-04-25T03:03:24;99063.06;;;12.66;79.91
75913;BME280;64592;52.168;21.040;2023-04-25T03:08:28;99072.53;;;12.70;79.42
75913;BME280;64592;52.168;21.040;2023-04-25T03:13:32;99064.78;;;12.67;79.22
75913;BME280;64592;52.168;21.040;2023-04-25T03:18:34;99071.84;;;12.68;79.53
75913;BME280;64592;52.168;21.040;2023-04-25T03:23:37;99073.19;;;12.64;79.63
75913;BME280;64592;52.168;21.040;2023-04-25T03:28:38;99067.75;;;12.56;80.61
75913;BME280;64592;52.168;21.040;2023-04-25T03:33:41;99076.16;;;12.53;80.79
75913;BME280;64592;52.168;21.040;2023-04-25T03:38:44;99081.75;;;12.51;80.71
75913;BME280;64592;52.168;21.040;2023-04-25T03:43:45;99082.25;;;12.55;80.58
75913;BME280;64592;52.168;21.040;2023-04-25T03:48:47;99081.28;;;12.38;81.27
75913;BME280;64592;52.168;21.040;2023-04-25T03:53:50;99085.34;;;12.34;80.96
75913;BME280;64592;52.168;21.040;2023-04-25T03:58:52;99082.63;;;12.34;81.49
75913;BME280;64592;52.168;21.040;2023-04-25T04:03:53;99083.34;;;12.36;80.93
75913;BME280;64592;52.168;21.040;2023-04-25T04:08:56;99085.03;;;12.37;80.91
75913;BME280;64592;52.168;21.040;2023-04-25T04:13:58;99097.00;;;12.34;80.72
75913;BME280;64592;52.168;21.040;2023-04-25T04:19:00;99102.69;;;12.31;80.33
75913;BME280;64592;52.168;21.040;2023-04-25T04:24:03;99102.34;;;12.26;80.74
75913;BME280;64592;52.168;21.040;2023-04-25T04:29:05;99093.94;;;12.29;80.55
75913;BME280;64592;52.168;21.040;2023-04-25T04:34:08;99103.94;;;12.37;80.12
75913;BME280;64592;52.168;21.040;2023-04-25T04:39:12;99107.38;;;12.47;79.97
75913;BME280;64592;52.168;21.040;2023-04-25T04:44:14;99117.75;;;12.60;79.08
75913;BME280;64592;52.168;21.040;2023-04-25T04:49:16;99129.00;;;12.47;79.55
75913;BME280;64592;52.168;21.040;2023-04-25T04:54:19;99134.25;;;12.49;79.55
75913;BME280;64592;52.168;21.040;2023-04-25T04:59:20;99120.53;;;12.42;79.94
75913;BME280;64592;52.168;21.040;2023-04-25T05:04:22;99115.34;;;12.49;80.12
75913;BME280;64592;52.168;21.040;2023-04-25T05:09:26;99123.69;;;12.37;81.10
75913;BME280;64592;52.168;21.040;2023-04-25T05:14:28;99116.06;;;12.33;81.18
75913;BME280;64592;52.168;21.040;2023-04-25T05:19:29;99125.31;;;12.30;82.03
75913;BME280;64592;52.168;21.040;2023-04-25T05:24:32;99130.84;;;12.21;82.65
75913;BME280;64592;52.168;21.040;2023-04-25T05:29:34;99129.00;;;12.21;82.40
75913;BME280;64592;52.168;21.040;2023-04-25T05:34:36;99133.00;;;12.17;82.34
75913;BME280;64592;52.168;21.040;2023-04-25T05:39:39;99125.38;;;12.13;82.66
75913;BME280;64592;52.168;21.040;2023-04-25T05:44:41;99127.06;;;12.14;81.71
75913;BME280;64592;52.168;21.040;2023-04-25T05:49:43;99127.69;;;12.08;81.95
75913;BME280;64592;52.168;21.040;2023-04-25T05:54:46;99142.72;;;12.10;81.82
75913;BME280;64592;52.168;21.040;2023-04-25T05:59:47;99148.13;;;12.10;81.42
75913;BME280;64592;52.168;21.040;2023-04-25T06:04:50;99148.13;;;12.10;81.49
75913;BME280;64592;52.168;21.040;2023-04-25T06:09:53;99149.38;;;11.98;81.07
75913;BME280;64592;52.168;21.040;2023-04-25T06:14:54;99167.56;;;11.96;82.22
75913;BME280;64592;52.168;21.040;2023-04-25T06:19:57;99185.78;;;11.94;81.35
75913;BME280;64592;52.168;21.040;2023-04-25T06:25:00;99186.41;;;11.88;82.39
75913;BME280;64592;52.168;21.040;2023-04-25T06:30:05;99188.25;;;11.87;83.00
75913;BME280;64592;52.168;21.040;2023-04-25T06:35:07;99192.72;;;11.79;82.65
75913;BME280;64592;52.168;21.040;2023-04-25T06:40:12;99197.09;;;11.80;83.47
75913;BME280;64592;52.168;21.040;2023-04-25T06:45:13;99174.00;;;11.67;83.21
75913;BME280;64592;52.168;21.040;2023-04-25T06:50:15;99174.66;;;11.52;82.99
75913;BME280;64592;52.168;21.040;2023-04-25T06:55:18;99170.88;;;11.45;82.20
75913;BME280;64592;52.168;21.040;2023-04-25T07:00:20;99176.38;;;11.53;83.03
75913;BME280;64592;52.168;21.040;2023-04-25T07:05:22;99182.00;;;11.59;82.78
75913;BME280;64592;52.168;21.040;2023-04-25T07:10:25;99183.16;;;11.57;83.86
75913;BME280;64592;52.168;21.040;2023-04-25T07:15:27;99181.25;;;11.67;83.04
75913;BME280;64592;52.168;21.040;2023-04-25T07:20:28;99168.00;;;11.74;83.57
75913;BME280;64592;52.168;21.040;2023-04-25T07:25:32;99177.09;;;11.73;82.29
75913;BME280;64592;52.168;21.040;2023-04-25T07:30:34;99194.13;;;11.73;81.58
75913;BME280;64592;52.168;21.040;2023-04-25T07:35:36;99187.88;;;11.82;82.14
75913;BME280;64592;52.168;21.040;2023-04-25T07:40:39;99191.59;;;11.72;81.90
75913;BME280;64592;52.168;21.040;2023-04-25T07:45:41;99186.03;;;11.73;81.97
75913;BME280;64592;52.168;21.040;2023-04-25T07:50:42;99184.66;;;11.69;81.21
75913;BME280;64592;52.168;21.040;2023-04-25T07:55:45;99198.44;;;11.76;80.72
75913;BME280;64592;52.168;21.040;2023-04-25T08:00:47;99192.72;;;11.79;81.70
75913;BME280;64592;52.168;21.040;2023-04-25T08:05:49;99194.97;;;11.83;80.21
75913;BME280;64592;52.168;21.040;2023-04-25T08:10:52;99205.63;;;11.85;79.09
75913;BME280;64592;52.168;21.040;2023-04-25T08:15:53;99208.91;;;11.79;78.74
75913;BME280;64592;52.168;21.040;2023-04-25T08:20:55;99212.94;;;11.75;79.58
75913;BME280;64592;52.168;21.040;2023-04-25T08:25:58;99224.31;;;11.68;79.94
75913;BME280;64592;52.168;21.040;2023-04-25T08:31:00;99228.59;;;11.61;78.91
75913;BME280;64592;52.168;21.040;2023-04-25T08:36:02;99227.50;;;11.54;79.05
75913;BME280;64592;52.168;21.040;2023-04-25T08:41:06;99232.66;;;11.48;79.55
75913;BME280;64592;52.168;21.040;2023-04-25T08:46:07;99240.88;;;11.46;78.36
75913;BME280;64592;52.168;21.040;2023-04-25T08:51:10;99244.59;;;11.45;79.15
75913;BME280;64592;52.168;21.040;2023-04-25T08:56:18;99253.97;;;11.41;79.04
75913;BME280;64592;52.168;21.040;2023-04-25T09:01:23;99247.56;;;11.42;78.64
75913;BME280;64592;52.168;21.040;2023-04-25T09:06:25;99256.13;;;11.38;78.61
75913;BME280;64592;52.168;21.040;2023-04-25T09:11:29;99259.41;;;11.32;78.88
75913;BME280;64592;52.168;21.040;2023-04-25T09:16:31;99269.94;;;11.25;78.54
75913;BME280;64592;52.168;21.040;2023-04-25T09:21:34;99280.03;;;11.23;79.38
75913;BME280;64592;52.168;21.040;2023-04-25T09:26:37;99285.28;;;11.24;79.03
75913;BME280;64592;52.168;21.040;2023-04-25T09:31:39;99290.81;;;11.23;78.54
75913;BME280;64592;52.168;21.040;2023-04-25T09:36:41;99298.91;;;11.23;79.62
75913;BME280;64592;52.168;21.040;2023-04-25T09:41:44;99289.38;;;11.28;78.78
75913;BME280;64592;52.168;21.040;2023-04-25T09:46:49;99289.81;;;11.24;79.76
75913;BME280;64592;52.168;21.040;2023-04-25T09:51:56;99292.06;;;11.28;80.07
75913;BME280;64592;52.168;21.040;2023-04-25T09:57:02;99297.22;;;11.22;79.59
75913;BME280;64592;52.168;21.040;2023-04-25T10:02:11;99300.88;;;11.31;80.37
75913;BME280;64592;52.168;21.040;2023-04-25T10:07:14;99304.06;;;11.07;80.17
75913;BME280;64592;52.168;21.040;2023-04-25T10:12:17;99304.06;;;10.97;81.44
75913;BME280;64592;52.168;21.040;2023-04-25T10:17:19;99308.31;;;11.00;80.86
75913;BME280;64592;52.168;21.040;2023-04-25T10:22:29;99309.75;;;11.04;81.21
75913;BME280;64592;52.168;21.040;2023-04-25T10:27:33;99307.06;;;10.94;79.65
75913;BME280;64592;52.168;21.040;2023-04-25T10:32:35;99316.00;;;10.95;79.66
75913;BME280;64592;52.168;21.040;2023-04-25T10:37:37;99313.72;;;11.00;79.64
75913;BME280;64592;52.168;21.040;2023-04-25T10:42:40;99310.88;;;11.11;80.10
75913;BME280;64592;52.168;21.040;2023-04-25T10:47:43;99301.47;;;11.24;79.80
75913;BME280;64592;52.168;21.040;2023-04-25T10:52:45;99297.59;;;11.27;78.24
75913;BME280;64592;52.168;21.040;2023-04-25T10:57:48;99300.88;;;11.31;76.42
75913;BME280;64592;52.168;21.040;2023-04-25T11:02:52;99303.00;;;11.27;77.48
75913;BME280;64592;52.168;21.040;2023-04-25T11:07:55;99306.13;;;11.32;77.34
75913;BME280;64592;52.168;21.040;2023-04-25T11:12:59;99316.22;;;11.30;76.73
75913;BME280;64592;52.168;21.040;2023-04-25T11:18:00;99315.94;;;11.33;76.23
75913;BME280;64592;52.168;21.040;2023-04-25T11:23:04;99307.38;;;11.38;76.04
75913;BME280;64592;52.168;21.040;2023-04-25T11:28:07;99313.31;;;11.41;76.19
75913;BME280;64592;52.168;21.040;2023-04-25T11:33:09;99318.72;;;11.41;75.31
75913;BME280;64592;52.168;21.040;2023-04-25T11:38:11;99313.31;;;11.41;73.93
75913;BME280;64592;52.168;21.040;2023-04-25T11:43:14;99309.88;;;11.49;74.29
75913;BME280;64592;52.168;21.040;2023-04-25T11:48:15;99312.16;;;11.53;74.08
75913;BME280;64592;52.168;21.040;2023-04-25T11:53:17;99310.19;;;11.55;72.02
75913;BME280;64592;52.168;21.040;2023-04-25T11:58:20;99312.56;;;11.58;70.69
75913;BME280;64592;52.168;21.040;2023-04-25T12:03:22;99311.28;;;11.62;71.18
75913;BME280;64592;52.168;21.040;2023-04-25T12:08:26;99307.53;;;11.73;71.54
75913;BME280;64592;52.168;21.040;2023-04-25T12:13:31;99310.69;;;11.68;70.83
75913;BME280;64592;52.168;21.040;2023-04-25T12:18:35;99295.88;;;11.73;71.04
75913;BME280;64592;52.168;21.040;2023-04-25T12:23:38;99306.28;;;11.67;70.78
75913;BME280;64592;52.168;21.040;2023-04-25T12:28:45;99304.44;;;11.68;69.45
75913;BME280;64592;52.168;21.040;2023-04-25T12:33:47;99307.56;;;11.63;69.31
75913;BME280;64592;52.168;21.040;2023-04-25T12:38:49;99305.56;;;11.65;68.59
75913;BME280;64592;52.168;21.040;2023-04-25T12:43:52;99301.06;;;11.56;68.42
75913;BME280;64592;52.168;21.040;2023-04-25T12:48:53;99289.13;;;11.59;68.98
75913;BME280;64592;52.168;21.040;2023-04-25T12:53:57;99291.38;;;11.63;68.72
75913;BME280;64592;52.168;21.040;2023-04-25T12:59:00;99298.19;;;11.67;68.57
75913;BME280;64592;52.168;21.040;2023-04-25T13:04:03;99289.63;;;11.72;67.43
75913;BME280;64592;52.168;21.040;2023-04-25T13:09:05;99286.69;;;11.65;67.08
75913;BME280;64592;52.168;21.040;2023-04-25T13:14:08;99287.13;;;11.61;65.91
75913;BME280;64592;52.168;21.040;2023-04-25T13:19:10;99276.34;;;11.61;66.62
75913;BME280;64592;52.168;21.040;2023-04-25T13:24:12;99284.88;;;11.56;66.89
75913;BME280;64592;52.168;21.040;2023-04-25T13:29:15;99281.78;;;11.51;68.00
75913;BME280;64592;52.168;21.040;2023-04-25T13:34:17;99274.38;;;11.53;67.05
75913;BME280;64592;52.168;21.040;2023-04-25T13:39:19;99269.69;;;11.55;65.12
75913;BME280;64592;52.168;21.040;2023-04-25T13:44:22;99283.47;;;11.52;65.82
75913;BME280;64592;52.168;21.040;2023-04-25T13:49:23;99280.06;;;11.50;66.50
75913;BME280;64592;52.168;21.040;2023-04-25T13:54:25;99285.22;;;11.34;68.36
75913;BME280;64592;52.168;21.040;2023-04-25T13:59:28;99288.63;;;11.36;69.03
75913;BME280;64592;52.168;21.040;2023-04-25T14:04:30;99284.66;;;11.40;69.96
75913;BME280;64592;52.168;21.040;2023-04-25T14:09:32;99282.50;;;11.44;70.71
75913;BME280;64592;52.168;21.040;2023-04-25T14:14:35;99281.13;;;11.40;71.10
75913;BME280;64592;52.168;21.040;2023-04-25T14:19:37;99287.06;;;11.43;72.88
75913;BME280;64592;52.168;21.040;2023-04-25T14:24:43;99278.97;;;11.43;72.87
75913;BME280;64592;52.168;21.040;2023-04-25T14:29:46;99285.94;;;11.36;72.28
75913;BME280;64592;52.168;21.040;2023-04-25T14:34:48;99288.94;;;11.33;72.97
75913;BME280;64592;52.168;21.040;2023-04-25T14:39:50;99281.59;;;11.25;73.72
75913;BME280;64592;52.168;21.040;2023-04-25T14:44:53;99286.41;;;11.22;75.05
75913;BME280;64592;52.168;21.040;2023-04-25T14:49:54;99297.91;;;11.24;75.22
75913;BME280;64592;52.168;21.040;2023-04-25T14:54:57;99298.91;;;11.23;75.75
75913;BME280;64592;52.168;21.040;2023-04-25T15:00:02;99295.94;;;11.16;75.46
75913;BME280;64592;52.168;21.040;2023-04-25T15:05:06;99296.22;;;11.13;75.74
75913;BME280;64592;52.168;21.040;2023-04-25T15:10:09;99294.78;;;11.19;76.32
75913;BME280;64592;52.168;21.040;2023-04-25T15:15:15;99297.34;;;11.20;76.54
75913;BME280;64592;52.168;21.040;2023-04-25T15:20:16;99305.16;;;11.23;76.24
75913;BME280;64592;52.168;21.040;2023-04-25T15:25:18;99301.47;;;11.24;75.71
75913;BME280;64592;52.168;21.040;2023-04-25T15:30:21;99304.31;;;11.23;76.31
75913;BME280;64592;52.168;21.040;2023-04-25T15:35:23;99296.06;;;11.24;76.40
75913;BME280;64592;52.168;21.040;2023-04-25T15:40:25;99305.03;;;11.25;76.59
75913;BME280;64592;52.168;21.040;2023-04-25T15:45:28;99304.03;;;11.26;76.20
75913;BME280;64592;52.168;21.040;2023-04-25T15:50:32;99304.31;;;11.23;73.67
75913;BME280;64592;52.168;21.040;2023-04-25T15:55:35;99306.59;;;11.18;72.15
75913;BME280;64592;52.168;21.040;2023-04-25T16:00:39;99310.03;;;11.10;72.15
75913;BME280;64592;52.168;21.040;2023-04-25T16:05:40;99313.28;;;11.04;72.57
75913;BME280;64592;52.168;21.040;2023-04-25T16:10:42;99318.13;;;11.01;73.46
75913;BME280;64592;52.168;21.040;2023-04-25T16:15:45;99318.38;;;10.98;74.42
75913;BME280;64592;52.168;21.040;2023-04-25T16:20:47;99318.38;;;10.98;75.19
75913;BME280;64592;52.168;21.040;2023-04-25T16:25:49;99333.03;;;10.95;75.47
75913;BME280;64592;52.168;21.040;2023-04-25T16:30:52;99323.66;;;10.89;74.59
75913;BME280;64592;52.168;21.040;2023-04-25T16:35:53;99332.63;;;10.80;73.73
75913;BME280;64592;52.168;21.040;2023-04-25T16:40:55;99340.28;;;10.66;73.11
75913;BME280;64592;52.168;21.040;2023-04-25T16:45:58;99340.53;;;10.53;72.85
75913;BME280;64592;52.168;21.040;2023-04-25T16:51:00;99340.84;;;10.50;73.85
75913;BME280;64592;52.168;21.040;2023-04-25T16:56:02;99342.38;;;10.43;74.26
75913;BME280;64592;52.168;21.040;2023-04-25T17:01:05;99349.88;;;10.39;75.34
75913;BME280;64592;52.168;21.040;2023-04-25T17:06:07;99348.00;;;10.30;75.75
75913;BME280;64592;52.168;21.040;2023-04-25T17:11:09;99357.63;;;10.23;76.67
75913;BME280;64592;52.168;21.040;2023-04-25T17:16:13;99360.50;;;10.22;76.31
75913;BME280;64592;52.168;21.040;2023-04-25T17:21:16;99363.84;;;10.14;76.66
75913;BME280;64592;52.168;21.040;2023-04-25T17:26:18;99372.59;;;10.06;76.67
75913;BME280;64592;52.168;21.040;2023-04-25T17:31:21;99366.06;;;9.99;77.44
75913;BME280;64592;52.168;21.040;2023-04-25T17:36:23;99372.97;;;9.92;77.73
75913;BME280;64592;52.168;21.040;2023-04-25T17:41:25;99380.22;;;9.92;77.39
75913;BME280;64592;52.168;21.040;2023-04-25T17:46:28;99381.19;;;9.91;77.22
75913;BME280;64592;52.168;21.040;2023-04-25T17:51:29;99388.97;;;9.84;76.81
75913;BME280;64592;52.168;21.040;2023-04-25T17:56:34;99392.00;;;9.70;77.68
75913;BME280;64592;52.168;21.040;2023-04-25T18:01:37;99404.91;;;9.76;77.90
75913;BME280;64592;52.168;21.040;2023-04-25T18:06:39;99402.47;;;9.73;77.61
75913;BME280;64592;52.168;21.040;2023-04-25T18:11:41;99418.63;;;9.73;78.09
75913;BME280;64592;52.168;21.040;2023-04-25T18:16:44;99423.28;;;9.71;77.94
75913;BME280;64592;52.168;21.040;2023-04-25T18:21:46;99438.75;;;9.69;78.55
75913;BME280;64592;52.168;21.040;2023-04-25T18:26:47;99442.66;;;9.65;80.13
75913;BME280;64592;52.168;21.040;2023-04-25T18:31:51;99442.22;;;9.60;79.83
75913;BME280;64592;52.168;21.040;2023-04-25T18:36:52;99461.59;;;9.54;79.74
75913;BME280;64592;52.168;21.040;2023-04-25T18:41:55;99462.13;;;9.48;79.67
75913;BME280;64592;52.168;21.040;2023-04-25T18:46:59;99467.50;;;9.48;80.11
75913;BME280;64592;52.168;21.040;2023-04-25T18:52:01;99476.78;;;9.44;80.84
75913;BME280;64592;52.168;21.040;2023-04-25T18:57:03;99476.53;;;9.47;81.38
75913;BME280;64592;52.168;21.040;2023-04-25T19:02:07;99471.81;;;9.39;81.65
75913;BME280;64592;52.168;21.040;2023-04-25T19:07:09;99473.91;;;9.35;82.18
75913;BME280;64592;52.168;21.040;2023-04-25T19:12:11;99474.88;;;9.34;82.00
75913;BME280;64592;52.168;21.040;2023-04-25T19:17:14;99486.38;;;9.37;82.79
75913;BME280;64592;52.168;21.040;2023-04-25T19:22:16;99480.47;;;9.43;84.09
75913;BME280;64592;52.168;21.040;2023-04-25T19:27:18;99488.66;;;9.41;82.64
75913;BME280;64592;52.168;21.040;2023-04-25T19:32:20;99487.22;;;9.37;84.33
75913;BME280;64592;52.168;21.040;2023-04-25T19:37:23;99490.03;;;9.35;83.89
75913;BME280;64592;52.168;21.040;2023-04-25T19:42:24;99486.13;;;9.40;83.42
75913;BME280;64592;52.168;21.040;2023-04-25T19:47:27;99495.91;;;9.41;83.85
75913;BME280;64592;52.168;21.040;2023-04-25T19:52:29;99495.91;;;9.41;84.21
75913;BME280;64592;52.168;21.040;2023-04-25T19:57:31;99493.56;;;9.36;83.65
75913;BME280;64592;52.168;21.040;2023-04-25T20:02:34;99488.47;;;9.33;84.28
75913;BME280;64592;52.168;21.040;2023-04-25T20:07:36;99493.56;;;9.36;83.78
75913;BME280;64592;52.168;21.040;2023-04-25T20:12:37;99492.25;;;9.30;83.37
75913;BME280;64592;52.168;21.040;2023-04-25T20:17:41;99490.56;;;9.29;83.51
75913;BME280;64592;52.168;21.040;2023-04-25T20:22:43;99490.94;;;9.25;83.69
75913;BME280;64592;52.168;21.040;2023-04-25T20:27:45;99496.69;;;9.20;83.47
75913;BME280;64592;52.168;21.040;2023-04-25T20:32:48;99488.50;;;9.22;84.10
75913;BME280;64592;52.168;21.040;2023-04-25T20:37:50;99489.59;;;9.19;84.54
75913;BME280;64592;52.168;21.040;2023-04-25T20:42:51;99493.31;;;9.18;85.33
75913;BME280;64592;52.168;21.040;2023-04-25T20:47:56;99504.06;;;9.18;84.49
75913;BME280;64592;52.168;21.040;2023-04-25T20:52:58;99502.34;;;9.17;84.23
75913;BME280;64592;52.168;21.040;2023-04-25T20:58:00;99501.84;;;9.12;85.11
75913;BME280;64592;52.168;21.040;2023-04-25T21:03:04;99498.94;;;9.15;84.64
75913;BME280;64592;52.168;21.040;2023-04-25T21:08:07;99506.00;;;9.16;85.42
75913;BME280;64592;52.168;21.040;2023-04-25T21:13:08;99500.03;;;9.13;84.58
75913;BME280;64592;52.168;21.040;2023-04-25T21:18:12;99497.00;;;9.06;84.50
75913;BME280;64592;52.168;21.040;2023-04-25T21:23:14;99495.91;;;9.09;84.36
75913;BME280;64592;52.168;21.040;2023-04-25T21:28:16;99494.31;;;9.06;85.50
75913;BME280;64592;52.168;21.040;2023-04-25T21:33:19;99492.88;;;9.02;84.98
75913;BME280;64592;52.168;21.040;2023-04-25T21:38:21;99499.22;;;9.01;85.05
75913;BME280;64592;52.168;21.040;2023-04-25T21:43:22;99491.41;;;8.98;86.67
75913;BME280;64592;52.168;21.040;2023-04-25T21:48:26;99497.28;;;9.03;86.76
75913;BME280;64592;52.168;21.040;2023-04-25T21:53:27;99485.25;;;9.07;87.92
75913;BME280;64592;52.168;21.040;2023-04-25T21:58:30;99491.91;;;9.03;87.68
75913;BME280;64592;52.168;21.040;2023-04-25T22:03:33;99490.63;;;9.07;87.20
75913;BME280;64592;52.168;21.040;2023-04-25T22:08:35;99477.84;;;9.00;87.39
75913;BME280;64592;52.168;21.040;2023-04-25T22:13:36;99493.97;;;9.00;87.58
75913;BME280;64592;52.168;21.040;2023-04-25T22:18:40;99496.41;;;9.03;88.37
75913;BME280;64592;52.168;21.040;2023-04-25T22:23:42;99509.97;;;9.01;88.38
75913;BME280;64592;52.168;21.040;2023-04-25T22:28:44;99507.34;;;8.79;87.67
75913;BME280;64592;52.168;21.040;2023-04-25T22:33:47;99513.56;;;8.68;85.10
75913;BME280;64592;52.168;21.040;2023-04-25T22:38:49;99515.44;;;8.56;84.97
75913;BME280;64592;52.168;21.040;2023-04-25T22:43:51;99507.88;;;8.39;83.84
75913;BME280;64592;52.168;21.040;2023-04-25T22:48:54;99512.53;;;8.37;84.28
75913;BME280;64592;52.168;21.040;2023-04-25T22:53:56;99523.50;;;8.34;84.40
75913;BME280;64592;52.168;21.040;2023-04-25T22:58:58;99537.41;;;8.28;84.20
75913;BME280;64592;52.168;21.040;2023-04-25T23:04:02;99526.66;;;8.28;84.12
75913;BME280;64592;52.168;21.040;2023-04-25T23:09:04;99528.72;;;8.25;84.92
75913;BME280;64592;52.168;21.040;2023-04-25T23:14:08;99540.78;;;8.19;84.36
75913;BME280;64592;52.168;21.040;2023-04-25T23:19:11;99538.94;;;8.08;85.05
75913;BME280;64592;52.168;21.040;2023-04-25T23:24:13;99541.63;;;8.08;85.84
75913;BME280;64592;52.168;21.040;2023-04-25T23:29:15;99551.03;;;8.03;85.57
75913;BME280;64592;52.168;21.040;2023-04-25T23:34:18;99542.00;;;8.04;86.37
75913;BME280;64592;52.168;21.040;2023-04-25T23:39:20;99548.09;;;8.06;86.44
75913;BME280;64592;52.168;21.040;2023-04-25T23:44:23;99542.00;;;8.04;85.07
75913;BME280;64592;52.168;21.040;2023-04-25T23:49:26;99554.78;;;8.00;84.84
75913;BME280;64592;52.168;21.040;2023-04-25T23:54:28;99552.09;;;8.00;85.08
75913;BME280;64592;52.168;21.040;2023-04-25T23:59:30;99544.91;;;8.01;84.48
